createdAt,value
2023-02-11T00:01:32.282Z,4.88
2023-02-11T00:04:00.645Z,4.07
2023-02-11T00:06:29.309Z,4.32
2023-02-11T00:09:00.998Z,5.13
2023-02-11T00:11:30.465Z,4.28
2023-02-11T00:13:59.826Z,4.32
2023-02-11T00:16:27.968Z,4.13
2023-02-11T00:18:55.761Z,4.55
2023-02-11T00:21:25.436Z,5.00
2023-02-11T00:23:53.476Z,4.60
2023-02-11T00:26:23.935Z,4.63
2023-02-11T00:28:52.199Z,4.20
2023-02-11T00:31:21.164Z,5.07
2023-02-11T00:33:49.088Z,4.30
2023-02-11T00:36:17.933Z,4.88
2023-02-11T00:38:45.698Z,4.45
2023-02-11T00:41:14.229Z,4.53
2023-02-11T00:43:43.274Z,3.60
2023-02-11T00:46:11.039Z,4.55
2023-02-11T00:48:38.725Z,4.32
2023-02-11T00:51:06.863Z,3.95
2023-02-11T00:53:34.548Z,3.97
2023-02-11T00:56:02.208Z,4.70
2023-02-11T00:58:31.287Z,4.78
2023-02-11T01:01:00.341Z,4.50
2023-02-11T01:03:28.100Z,4.22
2023-02-11T01:05:55.759Z,3.20
2023-02-11T01:08:23.538Z,5.18
2023-02-11T01:10:58.084Z,4.53
2023-02-11T01:13:26.335Z,4.37
2023-02-11T01:15:54.139Z,4.20
2023-02-11T01:18:23.282Z,5.28
2023-02-11T01:20:52.142Z,4.68
2023-02-11T01:23:21.588Z,4.03
2023-02-11T01:25:49.717Z,3.40
2023-02-11T01:28:18.415Z,4.07
2023-02-11T01:30:46.494Z,3.80
2023-02-11T01:33:14.277Z,4.25
2023-02-11T01:35:43.382Z,3.85
2023-02-11T01:38:15.661Z,3.80
2023-02-11T01:40:47.665Z,4.45
2023-02-11T01:43:15.316Z,5.70
2023-02-11T01:45:56.700Z,4.18
2023-02-11T01:48:26.464Z,4.05
2023-02-11T01:50:58.906Z,5.18
2023-02-11T01:53:44.752Z,4.90
2023-02-11T01:59:02.127Z,5.22
2023-02-11T02:01:30.226Z,3.90
2023-02-11T02:04:00.722Z,4.43
2023-02-11T02:06:34.445Z,4.57
2023-02-11T02:09:05.580Z,5.40
2023-02-11T02:11:33.282Z,4.38
2023-02-11T02:14:01.034Z,4.72
2023-02-11T02:16:31.379Z,4.68
2023-02-11T02:19:08.419Z,3.90
2023-02-11T02:21:53.139Z,5.57
2023-02-11T02:24:28.749Z,6.50
2023-02-11T02:27:09.815Z,4.57
2023-02-11T02:30:10.838Z,5.18
2023-02-11T02:32:44.236Z,5.35
2023-02-11T02:35:16.571Z,5.75
2023-02-11T02:37:48.556Z,4.15
2023-02-11T02:40:17.961Z,5.15
2023-02-11T02:42:45.892Z,4.30
2023-02-11T02:45:14.846Z,4.57
2023-02-11T02:47:43.880Z,4.68
2023-02-11T02:50:13.230Z,4.88
2023-02-11T02:52:44.168Z,4.13
2023-02-11T02:55:21.807Z,5.05
2023-02-11T02:57:56.036Z,4.65
2023-02-11T03:00:27.547Z,5.50
2023-02-11T03:03:03.798Z,5.05
2023-02-11T03:05:32.899Z,4.78
2023-02-11T03:08:03.939Z,3.95
2023-02-11T03:10:32.648Z,5.07
2023-02-11T03:13:00.954Z,5.45
2023-02-11T03:15:30.752Z,4.95
2023-02-11T03:18:00.229Z,5.05
2023-02-11T03:20:30.128Z,4.78
2023-02-11T03:22:59.360Z,5.63
2023-02-11T03:25:31.055Z,6.05
2023-02-11T03:28:00.271Z,5.00
2023-02-11T03:30:29.754Z,5.38
2023-02-11T03:32:59.229Z,4.53
2023-02-11T03:35:29.299Z,5.72
2023-02-11T03:38:01.277Z,4.90
2023-02-11T03:40:32.602Z,5.63
2023-02-11T03:43:02.166Z,4.90
2023-02-11T03:45:30.192Z,5.47
2023-02-11T03:48:01.465Z,4.75
2023-02-11T03:50:31.291Z,5.28
2023-02-11T03:53:01.453Z,5.18
2023-02-11T03:55:30.081Z,5.60
2023-02-11T03:57:57.786Z,4.75
2023-02-11T04:00:30.442Z,5.18
2023-02-11T04:02:58.147Z,5.63
2023-02-11T04:05:25.838Z,5.38
2023-02-11T04:07:53.514Z,6.10
2023-02-11T04:10:22.700Z,5.85
2023-02-11T04:12:50.383Z,6.43
2023-02-11T04:15:18.344Z,4.95
2023-02-11T04:17:46.043Z,5.65
2023-02-11T04:20:13.744Z,6.25
2023-02-11T04:22:41.443Z,5.30
2023-02-11T04:25:09.963Z,5.90
2023-02-11T04:27:39.570Z,5.55
2023-02-11T04:30:08.211Z,7.50
2023-02-11T04:32:35.975Z,7.00
2023-02-11T04:35:04.182Z,6.43
2023-02-11T04:37:31.838Z,6.30
2023-02-11T04:42:46.152Z,5.88
2023-02-11T04:45:13.973Z,6.90
2023-02-11T04:47:41.753Z,5.80
2023-02-11T04:50:09.917Z,7.25
2023-02-11T04:52:37.584Z,6.30
2023-02-11T04:55:06.693Z,5.95
2023-02-11T04:57:34.406Z,6.18
2023-02-11T05:00:03.949Z,5.75
2023-02-11T05:02:31.626Z,7.60
2023-02-11T05:04:59.328Z,6.90
2023-02-11T05:07:27.077Z,5.13
2023-02-11T05:09:54.740Z,5.70
2023-02-11T05:12:22.368Z,6.00
2023-02-11T05:14:50.148Z,6.57
2023-02-11T05:17:19.170Z,6.60
2023-02-11T05:19:46.848Z,7.28
2023-02-11T05:22:14.677Z,6.63
2023-02-11T05:24:42.361Z,6.43
2023-02-11T05:27:10.223Z,6.90
2023-02-11T05:29:38.232Z,7.80
2023-02-11T05:32:07.343Z,7.38
2023-02-11T05:34:36.409Z,6.60
2023-02-11T05:37:04.211Z,7.60
2023-02-11T05:39:31.906Z,6.72
2023-02-11T05:41:59.553Z,7.25
2023-02-11T05:44:27.220Z,7.15
2023-02-11T05:46:54.876Z,6.32
2023-02-11T05:49:22.680Z,7.30
2023-02-11T05:51:51.719Z,7.43
2023-02-11T05:54:19.352Z,7.00
2023-02-11T05:56:47.072Z,6.88
2023-02-11T05:59:15.194Z,7.20
2023-02-11T06:01:42.931Z,7.53
2023-02-11T06:04:10.716Z,7.22
2023-02-11T06:06:38.391Z,7.70
2023-02-11T06:09:07.726Z,8.32
2023-02-11T06:11:36.119Z,7.45
2023-02-11T06:14:03.809Z,7.13
2023-02-11T06:16:31.523Z,6.95
2023-02-11T06:18:59.270Z,8.70
2023-02-11T06:21:40.029Z,8.63
2023-02-11T06:24:12.777Z,8.05
2023-02-11T06:26:40.462Z,9.30
2023-02-11T06:29:08.153Z,8.93
2023-02-11T06:31:36.117Z,8.35
2023-02-11T06:34:05.090Z,9.00
2023-02-11T06:36:32.717Z,8.05
2023-02-11T06:39:00.941Z,9.35
2023-02-11T06:41:30.044Z,9.65
2023-02-11T06:43:57.755Z,8.85
2023-02-11T06:46:25.586Z,10.02
2023-02-11T06:48:53.272Z,10.88
2023-02-11T06:51:21.630Z,9.10
2023-02-11T06:53:49.313Z,11.10
2023-02-11T06:56:18.358Z,10.80
2023-02-11T06:58:48.243Z,10.35
2023-02-11T07:01:17.288Z,11.55
2023-02-11T07:03:45.820Z,9.98
2023-02-11T07:06:15.205Z,9.85
2023-02-11T07:08:43.468Z,11.98
2023-02-11T07:11:12.285Z,9.32
2023-02-11T07:13:39.973Z,10.32
2023-02-11T07:16:09.622Z,11.52
2023-02-11T07:18:37.444Z,11.07
2023-02-11T07:21:05.847Z,11.50
2023-02-11T07:23:33.797Z,10.10
2023-02-11T07:26:03.883Z,10.73
2023-02-11T07:28:31.619Z,12.10
2023-02-11T07:30:59.645Z,10.63
2023-02-11T07:33:28.691Z,12.55
2023-02-11T07:35:56.502Z,10.30
2023-02-11T07:38:24.143Z,11.43
2023-02-11T07:40:51.862Z,11.27
2023-02-11T07:43:19.510Z,11.25
2023-02-11T07:45:47.205Z,11.05
2023-02-11T07:48:14.967Z,11.00
2023-02-11T07:50:43.994Z,13.23
2023-02-11T07:53:11.771Z,12.25
2023-02-11T07:55:41.676Z,13.57
2023-02-11T07:58:09.424Z,12.48
2023-02-11T08:00:37.162Z,12.32
2023-02-11T08:03:05.379Z,11.45
2023-02-11T08:05:33.121Z,13.27
2023-02-11T08:08:02.218Z,10.32
2023-02-11T08:10:30.253Z,12.18
2023-02-11T08:12:57.944Z,13.18
2023-02-11T08:15:25.638Z,12.40
2023-02-11T08:17:53.285Z,13.95
2023-02-11T08:20:21.028Z,12.20
2023-02-11T08:22:48.847Z,11.50
2023-02-11T08:25:18.247Z,12.65
2023-02-11T08:27:45.919Z,13.32
2023-02-11T08:30:14.171Z,12.60
2023-02-11T08:32:41.832Z,12.23
2023-02-11T08:35:12.440Z,12.88
2023-02-11T08:37:40.087Z,13.98
2023-02-11T08:40:08.127Z,11.90
2023-02-11T08:42:37.156Z,13.55
2023-02-11T08:45:05.233Z,13.60
2023-02-11T08:47:32.932Z,11.38
2023-02-11T08:50:00.742Z,13.63
2023-02-11T08:52:28.557Z,14.32
2023-02-11T08:54:56.285Z,13.35
2023-02-11T08:57:23.958Z,11.32
2023-02-11T08:59:53.027Z,11.93
2023-02-11T09:02:20.729Z,12.77
2023-02-11T09:04:48.487Z,14.38
2023-02-11T09:07:20.740Z,12.38
2023-02-11T09:09:48.629Z,12.65
2023-02-11T09:12:16.303Z,13.18
2023-02-11T09:14:44.004Z,14.23
2023-02-11T09:17:13.555Z,13.70
2023-02-11T09:19:41.386Z,14.20
2023-02-11T09:22:09.068Z,13.15
2023-02-11T09:24:36.725Z,13.77
2023-02-11T09:27:04.446Z,12.18
2023-02-11T09:29:33.087Z,12.95
2023-02-11T09:32:00.847Z,11.50
2023-02-11T09:34:29.922Z,12.00
2023-02-11T09:36:57.603Z,13.93
2023-02-11T09:39:26.711Z,11.10
2023-02-11T09:42:18.435Z,10.82
2023-02-11T09:44:47.420Z,10.52
2023-02-11T09:47:22.220Z,12.52
2023-02-11T09:49:52.347Z,10.80
2023-02-11T09:52:24.709Z,12.48
2023-02-11T09:54:55.716Z,13.23
2023-02-11T09:57:28.905Z,13.38
2023-02-11T09:59:57.550Z,13.85
2023-02-11T10:02:27.705Z,15.25
2023-02-11T10:05:14.593Z,16.63
2023-02-11T10:07:47.166Z,13.48
2023-02-11T10:10:19.682Z,15.75
2023-02-11T10:12:56.104Z,15.00
2023-02-11T10:15:28.455Z,15.45
2023-02-11T10:18:03.042Z,15.20
2023-02-11T10:20:34.118Z,14.13
2023-02-11T10:23:03.682Z,14.20
2023-02-11T10:25:35.438Z,16.63
2023-02-11T10:28:13.332Z,15.57
2023-02-11T10:30:43.852Z,15.38
2023-02-11T10:33:15.117Z,13.93
2023-02-11T10:35:45.736Z,13.32
2023-02-11T10:38:13.568Z,16.67
2023-02-11T10:40:41.904Z,15.18
2023-02-11T10:43:12.232Z,14.10
2023-02-11T10:45:40.963Z,14.93
2023-02-11T10:48:26.048Z,16.88
2023-02-11T10:51:07.835Z,14.15
2023-02-11T10:53:35.853Z,14.65
2023-02-11T10:56:04.604Z,13.50
2023-02-11T10:58:33.535Z,15.50
2023-02-11T11:01:01.529Z,16.15
2023-02-11T11:03:30.462Z,14.57
2023-02-11T11:06:01.377Z,15.45
2023-02-11T11:08:39.380Z,14.65
2023-02-11T11:11:08.593Z,13.98
2023-02-11T11:13:37.310Z,15.75
2023-02-11T11:16:09.605Z,14.25
2023-02-11T11:18:37.320Z,15.90
2023-02-11T11:21:07.872Z,14.65
2023-02-11T11:23:36.380Z,13.38
2023-02-11T11:26:06.113Z,14.95
2023-02-11T11:28:36.679Z,13.57
2023-02-11T11:31:04.824Z,14.07
2023-02-11T11:33:34.990Z,16.08
2023-02-11T11:36:05.279Z,16.00
2023-02-11T11:38:36.142Z,13.85
2023-02-11T11:41:17.452Z,15.23
2023-02-11T11:43:55.020Z,15.05
2023-02-11T11:46:24.455Z,14.25
2023-02-11T11:48:53.159Z,15.07
2023-02-11T11:51:21.698Z,16.23
2023-02-11T11:53:54.585Z,15.18
2023-02-11T11:56:23.172Z,14.32
2023-02-11T11:58:51.301Z,14.27
2023-02-11T12:01:26.198Z,15.13
2023-02-11T12:04:04.349Z,15.15
2023-02-11T12:06:39.034Z,17.27
2023-02-11T12:09:12.095Z,14.90
2023-02-11T12:11:50.121Z,16.13
2023-02-11T12:14:23.408Z,14.35
2023-02-11T12:16:55.648Z,13.35
2023-02-11T12:19:37.806Z,14.98
2023-02-11T12:22:10.709Z,14.32
2023-02-11T12:24:53.197Z,15.73
2023-02-11T12:27:29.335Z,16.13
2023-02-11T12:30:03.577Z,14.63
2023-02-11T12:32:36.478Z,15.90
2023-02-11T12:35:19.036Z,16.15
2023-02-11T12:37:53.759Z,13.93
2023-02-11T12:40:24.494Z,12.20
2023-02-11T12:43:16.551Z,14.80
2023-02-11T12:45:51.343Z,14.60
2023-02-11T12:48:35.962Z,14.30
2023-02-11T12:51:08.267Z,16.23
2023-02-11T12:53:47.139Z,14.82
2023-02-11T12:56:18.750Z,14.93
2023-02-11T12:58:48.760Z,14.18
2023-02-11T13:01:20.052Z,15.23
2023-02-11T13:03:49.067Z,15.05
2023-02-11T13:06:20.462Z,16.58
2023-02-11T13:08:49.612Z,15.02
2023-02-11T13:11:18.941Z,16.40
2023-02-11T13:13:53.920Z,15.00
2023-02-11T13:16:29.614Z,15.73
2023-02-11T13:19:01.990Z,13.23
2023-02-11T13:21:39.504Z,14.93
2023-02-11T13:24:10.910Z,14.30
2023-02-11T13:26:42.151Z,14.45
2023-02-11T13:29:27.635Z,15.75
2023-02-11T13:31:56.582Z,15.38
2023-02-11T13:34:25.186Z,14.20
2023-02-11T13:36:56.754Z,14.43
2023-02-11T13:39:24.668Z,16.30
2023-02-11T13:41:52.974Z,13.85
2023-02-11T13:44:24.508Z,14.60
2023-02-11T13:46:54.476Z,13.98
2023-02-11T13:49:23.688Z,15.10
2023-02-11T13:51:52.508Z,13.68
2023-02-11T13:54:23.876Z,14.63
2023-02-11T13:57:06.344Z,13.73
2023-02-11T13:59:52.088Z,15.20
2023-02-11T14:05:38.218Z,13.80
2023-02-11T14:08:31.311Z,15.25
2023-02-11T14:11:00.517Z,13.15
2023-02-11T14:13:33.546Z,14.07
2023-02-11T14:16:07.271Z,14.27
2023-02-11T14:18:39.009Z,13.63
2023-02-11T14:21:13.208Z,13.43
2023-02-11T14:23:41.440Z,15.05
2023-02-11T14:26:23.880Z,13.43
2023-02-11T14:28:53.127Z,12.77
2023-02-11T14:31:24.496Z,12.45
2023-02-11T14:34:00.666Z,13.15
2023-02-11T14:36:46.299Z,11.73
2023-02-11T14:39:19.480Z,11.55
2023-02-11T14:41:48.174Z,10.95
2023-02-11T14:44:17.599Z,11.95
2023-02-11T14:46:47.396Z,12.27
2023-02-11T14:49:21.550Z,11.70
2023-02-11T14:51:50.404Z,11.52
2023-02-11T14:54:21.269Z,13.10
2023-02-11T14:57:05.973Z,12.13
2023-02-11T14:59:33.842Z,11.43
2023-02-11T15:02:03.068Z,12.32
2023-02-11T15:04:32.304Z,10.57
2023-02-11T15:07:04.011Z,12.13
2023-02-11T15:09:34.335Z,11.88
2023-02-11T15:12:02.276Z,11.25
2023-02-11T15:14:31.402Z,12.38
2023-02-11T15:17:00.860Z,12.45
2023-02-11T15:19:34.371Z,12.30
2023-02-11T15:22:02.805Z,13.15
2023-02-11T15:24:31.366Z,12.38
2023-02-11T15:26:59.903Z,12.50
2023-02-11T15:29:27.703Z,12.88
2023-02-11T15:32:06.991Z,12.75
2023-02-11T15:34:37.549Z,13.05
2023-02-11T15:37:05.420Z,11.95
2023-02-11T15:39:35.235Z,13.85
2023-02-11T15:42:25.890Z,12.50
2023-02-11T15:45:08.357Z,11.90
2023-02-11T15:47:36.487Z,11.90
2023-02-11T15:50:06.006Z,10.60
2023-02-11T15:52:34.203Z,12.30
2023-02-11T15:55:03.035Z,13.25
2023-02-11T15:57:30.965Z,13.50
2023-02-11T16:00:04.368Z,12.00
2023-02-11T16:02:32.833Z,12.05
2023-02-11T16:05:01.559Z,13.43
2023-02-11T16:07:44.021Z,12.30
2023-02-11T16:10:18.627Z,11.50
2023-02-11T16:12:52.036Z,13.02
2023-02-11T16:15:29.514Z,12.02
2023-02-11T16:17:57.407Z,12.18
2023-02-11T16:20:27.325Z,11.13
2023-02-11T16:22:56.504Z,14.52
2023-02-11T16:25:24.592Z,13.82
2023-02-11T16:27:53.061Z,13.00
2023-02-11T16:30:28.065Z,11.60
2023-02-11T16:32:55.909Z,12.68
2023-02-11T16:35:23.611Z,13.18
2023-02-11T16:37:51.285Z,13.48
2023-02-11T16:40:20.516Z,12.07
2023-02-11T16:42:48.193Z,11.85
2023-02-11T16:45:15.943Z,12.95
2023-02-11T16:47:44.237Z,11.80
2023-02-11T16:50:13.324Z,11.65
2023-02-11T16:52:41.001Z,13.23
2023-02-11T16:55:11.564Z,12.98
2023-02-11T16:57:40.617Z,13.27
2023-02-11T17:00:08.943Z,12.98
2023-02-11T17:02:38.191Z,12.25
2023-02-11T17:05:07.188Z,13.07
2023-02-11T17:07:35.416Z,12.52
2023-02-11T17:10:16.536Z,12.38
2023-02-11T17:12:45.662Z,12.95
2023-02-11T17:15:13.357Z,12.50
2023-02-11T17:17:41.133Z,13.13
2023-02-11T17:20:09.543Z,12.50
2023-02-11T17:22:37.410Z,14.65
2023-02-11T17:25:05.202Z,12.77
2023-02-11T17:27:32.852Z,15.00
2023-02-11T17:30:02.260Z,13.48
2023-02-11T17:32:30.701Z,13.52
2023-02-11T17:34:58.421Z,13.90
2023-02-11T17:37:26.159Z,12.77
2023-02-11T17:39:53.795Z,13.48
2023-02-11T17:42:21.733Z,13.48
2023-02-11T17:44:49.426Z,17.08
2023-02-11T17:47:18.437Z,15.18
2023-02-11T17:49:46.178Z,14.07
2023-02-11T17:52:13.828Z,14.88
2023-02-11T17:54:41.602Z,15.38
2023-02-11T17:57:09.267Z,16.35
2023-02-11T17:59:36.991Z,14.07
2023-02-11T18:02:05.118Z,16.08
2023-02-11T18:04:34.226Z,14.55
2023-02-11T18:07:02.040Z,14.38
2023-02-11T18:09:29.709Z,14.38
2023-02-11T18:11:58.572Z,15.23
2023-02-11T18:14:26.229Z,14.18
2023-02-11T18:16:54.116Z,14.38
2023-02-11T18:19:21.908Z,13.85
2023-02-11T18:21:51.078Z,15.43
2023-02-11T18:24:19.281Z,15.25
2023-02-11T18:26:46.981Z,15.63
2023-02-11T18:29:14.733Z,14.93
2023-02-11T18:31:42.424Z,14.60
2023-02-11T18:34:10.755Z,16.33
2023-02-11T18:36:38.897Z,14.90
2023-02-11T18:39:09.133Z,15.40
2023-02-11T18:41:36.842Z,15.07
2023-02-11T18:44:04.996Z,16.10
2023-02-11T18:46:32.699Z,15.95
2023-02-11T18:49:00.417Z,16.98
2023-02-11T18:51:31.752Z,16.58
2023-02-11T18:53:59.505Z,16.77
2023-02-11T18:56:28.888Z,14.00
2023-02-11T18:58:57.524Z,15.25
2023-02-11T19:01:27.327Z,15.13
2023-02-11T19:03:55.632Z,15.30
2023-02-11T19:06:25.463Z,16.35
2023-02-11T19:08:53.726Z,14.57
2023-02-11T19:11:41.366Z,16.27
2023-02-11T19:14:11.245Z,15.10
2023-02-11T19:16:39.013Z,15.57
2023-02-11T19:19:06.812Z,16.40
2023-02-11T19:21:34.768Z,16.10
2023-02-11T19:24:03.053Z,16.65
2023-02-11T19:26:30.874Z,18.63
2023-02-11T19:28:59.386Z,16.27
2023-02-11T19:31:32.235Z,17.65
2023-02-11T19:34:00.452Z,17.08
2023-02-11T19:36:28.320Z,18.90
2023-02-11T19:38:56.404Z,15.75
2023-02-11T19:41:24.040Z,15.38
2023-02-11T19:43:52.999Z,17.95
2023-02-11T19:46:21.728Z,17.85
2023-02-11T19:48:50.915Z,17.13
2023-02-11T19:51:18.837Z,16.48
2023-02-11T19:53:47.003Z,17.05
2023-02-11T19:56:15.309Z,18.08
2023-02-11T19:58:43.456Z,17.40
2023-02-11T20:01:12.234Z,15.30
2023-02-11T20:03:47.415Z,15.45
2023-02-11T20:06:18.123Z,18.85
2023-02-11T20:08:45.848Z,15.98
2023-02-11T20:11:14.510Z,17.67
2023-02-11T20:13:42.769Z,16.80
2023-02-11T20:16:18.898Z,15.63
2023-02-11T20:18:47.180Z,17.80
2023-02-11T20:21:17.237Z,18.23
2023-02-11T20:23:46.624Z,18.52
2023-02-11T20:26:15.346Z,17.58
2023-02-11T20:28:43.021Z,16.50
2023-02-11T20:31:12.072Z,16.05
2023-02-11T20:33:40.252Z,16.15
2023-02-11T20:36:09.266Z,16.45
2023-02-11T20:38:38.557Z,18.08
2023-02-11T20:41:07.139Z,17.95
2023-02-11T20:43:37.664Z,18.42
2023-02-11T20:46:06.276Z,17.90
2023-02-11T20:48:34.283Z,18.77
2023-02-11T20:51:05.762Z,17.20
2023-02-11T20:53:35.445Z,18.23
2023-02-11T20:56:05.001Z,22.85
2023-02-11T20:58:33.142Z,20.20
2023-02-11T21:01:07.663Z,16.83
2023-02-11T21:03:35.341Z,17.40
2023-02-11T21:06:03.110Z,17.67
2023-02-11T21:08:30.803Z,21.08
2023-02-11T21:10:58.653Z,16.83
2023-02-11T21:13:28.167Z,17.80
2023-02-11T21:15:56.962Z,21.88
2023-02-11T21:18:24.872Z,20.48
2023-02-11T21:20:52.651Z,19.58
2023-02-11T21:23:20.630Z,20.90
2023-02-11T21:25:48.326Z,20.15
2023-02-11T21:28:16.325Z,22.17
2023-02-11T21:30:45.461Z,23.95
2023-02-11T21:33:13.400Z,21.08
2023-02-11T21:35:41.209Z,20.88
2023-02-11T21:38:08.833Z,21.65
2023-02-11T21:40:36.843Z,19.85
2023-02-11T21:43:05.692Z,18.77
2023-02-11T21:45:33.545Z,16.05
2023-02-11T21:48:02.640Z,17.60
2023-02-11T21:50:30.275Z,16.55
2023-02-11T21:52:58.036Z,19.10
2023-02-11T21:55:25.734Z,18.90
2023-02-11T21:57:53.491Z,20.13
2023-02-11T22:00:21.403Z,18.13
2023-02-11T22:02:49.928Z,19.08
2023-02-11T22:05:19.103Z,17.27
2023-02-11T22:07:46.789Z,16.35
2023-02-11T22:10:14.641Z,17.95
2023-02-11T22:12:42.653Z,18.42
2023-02-11T22:15:10.785Z,17.92
2023-02-11T22:17:38.614Z,18.25
2023-02-11T22:20:07.280Z,17.33
2023-02-11T22:22:36.499Z,15.70
2023-02-11T22:25:04.200Z,17.95
2023-02-11T22:27:31.848Z,19.27
2023-02-11T22:29:59.565Z,18.23
2023-02-11T22:32:28.356Z,18.58
2023-02-11T22:34:56.160Z,20.33
2023-02-11T22:37:24.115Z,17.42
2023-02-11T22:39:53.154Z,17.85
2023-02-11T22:42:20.893Z,16.00
2023-02-11T22:44:48.570Z,19.13
2023-02-11T22:47:16.340Z,18.40
2023-02-11T22:49:44.072Z,15.55
2023-02-11T22:52:11.863Z,16.27
2023-02-11T22:54:39.532Z,16.85
2023-02-11T22:57:08.586Z,18.42
2023-02-11T22:59:36.550Z,24.75
2023-02-11T23:02:04.342Z,21.33
2023-02-11T23:04:32.172Z,15.95
2023-02-11T23:06:59.885Z,16.55
2023-02-11T23:09:27.755Z,17.85
2023-02-11T23:11:55.656Z,16.08
2023-02-11T23:14:24.795Z,15.02
2023-02-11T23:16:52.507Z,14.00
2023-02-11T23:19:20.370Z,15.50
2023-02-11T23:21:51.313Z,16.10
2023-02-11T23:24:19.070Z,15.07
2023-02-11T23:26:46.870Z,15.10
2023-02-11T23:29:14.600Z,13.68
2023-02-11T23:31:46.115Z,15.75
2023-02-11T23:34:17.034Z,15.52
2023-02-11T23:36:45.003Z,10.63
2023-02-11T23:39:15.091Z,11.27
2023-02-11T23:41:42.761Z,12.40
2023-02-11T23:44:11.116Z,13.63
2023-02-11T23:46:38.903Z,13.52
2023-02-11T23:49:07.953Z,13.07
2023-02-11T23:51:35.727Z,12.88
2023-02-11T23:54:03.409Z,12.68
2023-02-11T23:56:31.147Z,11.90
2023-02-11T23:58:59.308Z,11.70
